Aérodrome :
LOGIN :

S'inscrire | Disclaimer

   EN    FR    IT 

 










Légende :    VFR   VFR Marginal   IFR   IFR Intensif   IFR Très Intensif
Visi : 
Plafond : 
>= 8 km
>= 3000ft
5 à 8 km
1000 à 3000 ft
1500m à 5 km
500 à 1000 ft
800 à 1500m
200 à 500 ft
< 800m
< 200 ft
Symboles :   Orages  Brouillard  Fortes neiges  Fortes précipitations  Vent > 20 kt
SIGMETs :   Divers  Orages  Givrage  Turbulence  Onde Orograph.  Cendres Volcan.







- Altitude de l'aérodrome : 788 ft
- Code IATA : DCM
- Voir les cartes d'approche


LFCK - Castres-Mazamet

DERNIER METAR :
  • 181730Z AUTO 20002KT 9999 OVC033 09/06 Q1022 TEMPO 3000 -DZ OVC008

METARs EXPIRÉS :
  • 181700Z AUTO 17001KT 9999 OVC034 09/05 Q1021 TEMPO 3000 -DZ OVC008
  • 181630Z AUTO 00000KT 9999 FEW028 OVC035 09/06 Q1021 TEMPO 3000 -DZ OVC008
  • 181600Z AUTO VRB02KT 9999 OVC028 09/06 Q1022 TEMPO 3000 -DZ OVC008
  • 181530Z AUTO 03002KT 9999 OVC029 09/05 Q1022 TEMPO 3000 -DZ OVC008
  • 181500Z AUTO 03003KT 9999 OVC027 09/05 Q1022 TEMPO 3000 -DZ OVC008

TAF TAF LFCK
Valide du 18 à 18h jusqu'au 19 à 03h UTC


181700Z 1818/1903 VRB02KT 9999 BKN035
PROB40
TEMPO 1818/1824 3000 -DZ OVC008
Pas de NOTAMs connus pour ce terrain.



MET'MAP, la Météo Aéronautique d'un coup d'oeil ! - Copyright ORBIFLY Décembre 2007 - Disclaimer

ORBIFLY MET'MAP TEAM :

Programmation & Développement : Alexandra Zaïnal
Conception & Développement : Baudouin d'Aumeries
Co-Programmation & Développement : Marc-Olivier Méhu
Soutien technique & logistique : Manuel Goepfert

Contact : metmap@orbifly.com




SOURCES & CREDITS :

   NOAA